createdAt,value
2022-08-27T00:00:28.378Z,77.48
2022-08-27T00:02:36.071Z,77.34
2022-08-27T00:04:43.898Z,77.14
2022-08-27T00:06:48.774Z,77.48
2022-08-27T00:08:54.951Z,76.86
2022-08-27T00:11:00.068Z,76.99
2022-08-27T00:13:04.823Z,75.97
2022-08-27T00:15:11.820Z,76.05
2022-08-27T00:17:22.674Z,76.17
2022-08-27T00:19:27.639Z,77.23
2022-08-27T00:21:35.643Z,77.13
2022-08-27T00:23:41.290Z,77.09
2022-08-27T00:25:46.154Z,77.16
2022-08-27T00:27:55.587Z,76.72
2022-08-27T00:30:00.604Z,77.01
2022-08-27T00:32:06.066Z,76.27
2022-08-27T00:34:12.967Z,75.70
2022-08-27T00:36:18.497Z,75.79
2022-08-27T00:38:26.625Z,76.47
2022-08-27T00:40:31.824Z,77.09
2022-08-27T00:42:36.963Z,76.12
2022-08-27T00:44:41.860Z,77.27
2022-08-27T00:46:52.560Z,77.85
2022-08-27T00:49:01.686Z,78.46
2022-08-27T00:51:08.942Z,79.08
2022-08-27T00:53:16.918Z,79.05
2022-08-27T00:55:28.679Z,79.22
2022-08-27T00:57:34.128Z,79.07
2022-08-27T00:59:39.621Z,79.80
2022-08-27T01:01:58.860Z,79.17
2022-08-27T01:04:07.202Z,78.59
2022-08-27T01:06:16.174Z,78.52
2022-08-27T01:08:23.868Z,79.13
2022-08-27T01:10:32.682Z,78.57
2022-08-27T01:12:38.633Z,78.75
2022-08-27T01:14:47.193Z,78.57
2022-08-27T01:16:56.179Z,78.09
2022-08-27T01:19:01.803Z,78.43
2022-08-27T01:21:15.515Z,78.23
2022-08-27T01:23:28.149Z,78.03
2022-08-27T01:25:36.012Z,77.67
2022-08-27T01:27:42.178Z,77.98
2022-08-27T01:29:47.990Z,78.09
2022-08-27T01:31:52.964Z,77.63
2022-08-27T01:34:00.455Z,78.02
2022-08-27T01:36:05.928Z,78.61
2022-08-27T01:38:18.298Z,78.56
2022-08-27T01:40:38.181Z,78.17
2022-08-27T01:42:45.729Z,77.99
2022-08-27T01:44:54.069Z,77.59
2022-08-27T01:46:58.986Z,77.80
2022-08-27T01:49:03.706Z,77.46
2022-08-27T01:51:09.887Z,77.89
2022-08-27T01:53:18.003Z,77.74
2022-08-27T01:55:25.411Z,77.68
2022-08-27T01:57:33.026Z,77.43
2022-08-27T01:59:39.598Z,77.37
2022-08-27T02:01:45.170Z,77.37
2022-08-27T02:03:50.371Z,77.92
2022-08-27T02:05:55.230Z,77.66
2022-08-27T02:08:00.704Z,77.91
2022-08-27T02:10:06.721Z,78.17
2022-08-27T02:12:12.009Z,78.24
2022-08-27T02:14:20.418Z,77.86
2022-08-27T02:16:25.449Z,78.34
2022-08-27T02:18:30.417Z,78.49
2022-08-27T02:20:35.497Z,77.82
2022-08-27T02:22:40.303Z,78.12
2022-08-27T02:24:45.222Z,77.89
2022-08-27T02:26:50.161Z,78.36
2022-08-27T02:28:55.362Z,78.15
2022-08-27T02:31:02.949Z,78.07
2022-08-27T02:33:08.457Z,77.56
2022-08-27T02:35:13.385Z,77.78
2022-08-27T02:37:18.630Z,77.25
2022-08-27T02:39:23.751Z,77.18
2022-08-27T02:41:28.583Z,76.94
2022-08-27T02:43:33.677Z,77.03
2022-08-27T02:45:40.864Z,76.52
2022-08-27T02:47:48.121Z,77.05
2022-08-27T02:49:53.002Z,77.42
2022-08-27T02:51:58.897Z,77.47
2022-08-27T02:54:04.105Z,77.26
2022-08-27T02:56:10.538Z,76.58
2022-08-27T02:58:17.012Z,77.05
2022-08-27T03:00:24.549Z,77.05
2022-08-27T03:02:29.528Z,76.99
2022-08-27T03:04:37.318Z,77.12
2022-08-27T03:06:42.379Z,77.33
2022-08-27T03:08:52.047Z,77.13
2022-08-27T03:10:58.037Z,77.20
2022-08-27T03:13:02.958Z,77.02
2022-08-27T03:15:09.627Z,76.90
2022-08-27T03:17:27.079Z,76.76
2022-08-27T03:19:32.127Z,76.41
2022-08-27T03:21:39.413Z,76.58
2022-08-27T03:23:44.335Z,77.12
2022-08-27T03:25:54.223Z,76.55
2022-08-27T03:27:59.099Z,76.52
2022-08-27T03:30:04.504Z,76.26
2022-08-27T03:32:10.086Z,76.65
2022-08-27T03:34:14.955Z,76.81
2022-08-27T03:36:26.239Z,76.53
2022-08-27T03:38:33.703Z,76.10
2022-08-27T03:40:38.700Z,76.24
2022-08-27T03:42:43.525Z,76.04
2022-08-27T03:44:48.384Z,76.25
2022-08-27T03:46:54.102Z,76.43
2022-08-27T03:48:59.168Z,76.64
2022-08-27T03:51:08.245Z,76.11
2022-08-27T03:53:13.806Z,76.18
2022-08-27T03:55:21.577Z,76.26
2022-08-27T03:57:26.522Z,76.69
2022-08-27T03:59:31.369Z,77.00
2022-08-27T04:01:36.798Z,76.68
2022-08-27T04:03:41.718Z,76.61
2022-08-27T04:05:46.965Z,76.51
2022-08-27T04:07:52.333Z,76.83
2022-08-27T04:09:57.228Z,76.80
2022-08-27T04:12:05.042Z,76.59
2022-08-27T04:14:23.463Z,77.00
2022-08-27T04:16:32.070Z,76.91
2022-08-27T04:18:37.175Z,76.54
2022-08-27T04:20:41.768Z,76.80
2022-08-27T04:22:46.595Z,76.52
2022-08-27T04:24:51.506Z,76.33
2022-08-27T04:26:56.386Z,76.23
2022-08-27T04:29:03.873Z,76.15
2022-08-27T04:31:16.685Z,76.11
2022-08-27T04:33:21.862Z,75.82
2022-08-27T04:35:26.716Z,75.84
2022-08-27T04:37:34.812Z,75.39
2022-08-27T04:39:39.838Z,75.83
2022-08-27T04:41:45.328Z,76.37
2022-08-27T04:43:51.737Z,76.51
2022-08-27T04:45:59.695Z,77.20
2022-08-27T04:48:04.538Z,77.82
2022-08-27T04:50:10.228Z,77.85
2022-08-27T04:52:15.677Z,77.93
2022-08-27T04:54:32.212Z,78.19
2022-08-27T04:56:38.603Z,78.07
2022-08-27T04:58:43.871Z,77.54
2022-08-27T05:00:51.349Z,77.16
2022-08-27T05:02:58.826Z,76.76
2022-08-27T05:05:03.756Z,76.71
2022-08-27T05:07:10.215Z,76.48
2022-08-27T05:09:16.063Z,76.46
2022-08-27T05:11:24.317Z,76.42
2022-08-27T05:13:30.102Z,76.17
2022-08-27T05:15:35.036Z,76.12
2022-08-27T05:17:39.791Z,75.58
2022-08-27T05:19:47.261Z,75.84
2022-08-27T05:21:54.512Z,76.09
2022-08-27T05:24:01.184Z,76.11
2022-08-27T05:26:06.310Z,75.83
2022-08-27T05:28:11.096Z,76.20
2022-08-27T05:30:16.539Z,75.84
2022-08-27T05:32:21.763Z,76.03
2022-08-27T05:34:27.243Z,75.11
2022-08-27T05:36:37.777Z,75.54
2022-08-27T05:38:53.032Z,75.76
2022-08-27T05:41:05.255Z,74.95
2022-08-27T05:43:10.833Z,74.87
2022-08-27T05:45:16.310Z,75.54
2022-08-27T05:47:21.280Z,74.69
2022-08-27T05:49:26.133Z,74.93
2022-08-27T05:51:36.483Z,74.82
2022-08-27T05:53:41.906Z,74.47
2022-08-27T05:55:47.929Z,74.52
2022-08-27T05:57:53.344Z,74.32
2022-08-27T06:00:15.736Z,74.44
2022-08-27T06:02:21.770Z,74.35
2022-08-27T06:04:28.227Z,74.63
2022-08-27T06:06:37.674Z,74.85
2022-08-27T06:08:42.623Z,74.67
2022-08-27T06:10:47.575Z,74.72
2022-08-27T06:12:56.758Z,74.53
2022-08-27T06:15:02.046Z,74.24
2022-08-27T06:17:07.403Z,74.45
2022-08-27T06:19:14.461Z,74.19
2022-08-27T06:21:24.866Z,74.41
2022-08-27T06:23:32.484Z,73.99
2022-08-27T06:25:37.313Z,73.87
2022-08-27T06:27:42.342Z,73.54
2022-08-27T06:29:48.522Z,73.91
2022-08-27T06:31:55.121Z,73.80
2022-08-27T06:34:07.353Z,73.52
2022-08-27T06:36:14.861Z,73.89
2022-08-27T06:38:19.712Z,74.43
2022-08-27T06:40:27.471Z,74.12
2022-08-27T06:42:32.386Z,74.10
2022-08-27T06:44:39.718Z,74.09
2022-08-27T06:46:45.625Z,74.52
2022-08-27T06:48:50.944Z,74.43
2022-08-27T06:50:56.268Z,74.60
2022-08-27T06:53:01.210Z,74.57
2022-08-27T06:55:06.900Z,74.81
2022-08-27T06:57:14.364Z,74.21
2022-08-27T06:59:21.401Z,74.31
2022-08-27T07:01:28.320Z,74.59
2022-08-27T07:03:35.242Z,75.00
2022-08-27T07:05:43.038Z,75.23
2022-08-27T07:07:48.924Z,74.29
2022-08-27T07:09:53.970Z,74.44
2022-08-27T07:11:58.816Z,74.56
2022-08-27T07:14:06.338Z,74.74
2022-08-27T07:16:15.604Z,74.45
2022-08-27T07:18:20.859Z,75.09
2022-08-27T07:20:33.162Z,75.12
2022-08-27T07:22:38.097Z,74.78
2022-08-27T07:24:43.191Z,74.84
2022-08-27T07:26:47.935Z,74.56
2022-08-27T07:28:53.642Z,74.60
2022-08-27T07:31:01.830Z,74.10
2022-08-27T07:33:07.118Z,74.02
2022-08-27T07:35:12.483Z,73.90
2022-08-27T07:37:17.467Z,73.76
2022-08-27T07:39:22.166Z,73.17
2022-08-27T07:41:30.308Z,73.06
2022-08-27T07:43:48.764Z,73.12
2022-08-27T07:45:56.413Z,72.60
2022-08-27T07:48:04.006Z,72.88
2022-08-27T07:50:10.330Z,72.69
2022-08-27T07:52:16.260Z,72.83
2022-08-27T07:54:21.515Z,72.76
2022-08-27T07:56:26.637Z,72.82
2022-08-27T07:58:31.225Z,72.42
2022-08-27T08:00:36.911Z,72.30
2022-08-27T08:02:45.064Z,72.06
2022-08-27T08:04:52.599Z,71.61
2022-08-27T08:06:58.468Z,71.45
2022-08-27T08:09:03.476Z,71.13
2022-08-27T08:11:08.882Z,70.82
2022-08-27T08:13:14.072Z,70.90
2022-08-27T08:15:20.177Z,71.00
2022-08-27T08:17:25.052Z,70.73
2022-08-27T08:19:32.101Z,71.20
2022-08-27T08:21:40.525Z,70.79
2022-08-27T08:23:45.698Z,71.02
2022-08-27T08:25:50.588Z,71.50
2022-08-27T08:27:55.754Z,71.27
2022-08-27T08:30:00.993Z,70.98
2022-08-27T08:32:06.332Z,71.03
2022-08-27T08:34:11.706Z,70.90
2022-08-27T08:36:20.952Z,71.24
2022-08-27T08:38:28.456Z,71.00
2022-08-27T08:40:37.655Z,70.57
2022-08-27T08:42:50.605Z,69.61
2022-08-27T08:44:57.926Z,69.51
2022-08-27T08:47:08.436Z,68.49
2022-08-27T08:49:20.940Z,68.58
2022-08-27T08:51:32.777Z,68.43
2022-08-27T08:53:47.610Z,68.13
2022-08-27T08:55:58.475Z,67.38
2022-08-27T08:58:15.285Z,67.50
2022-08-27T09:00:20.322Z,67.44
2022-08-27T09:02:25.014Z,67.53
2022-08-27T09:04:33.300Z,67.28
2022-08-27T09:06:44.289Z,66.56
2022-08-27T09:08:51.840Z,66.11
2022-08-27T09:11:07.338Z,66.39
2022-08-27T09:13:22.576Z,64.91
2022-08-27T09:15:31.783Z,64.65
2022-08-27T09:17:37.184Z,63.43
2022-08-27T09:19:43.029Z,62.77
2022-08-27T09:21:54.498Z,62.78
2022-08-27T09:24:09.656Z,62.43
2022-08-27T09:26:25.942Z,62.63
2022-08-27T09:28:44.782Z,62.87
2022-08-27T09:30:49.744Z,62.90
2022-08-27T09:32:58.277Z,63.33
2022-08-27T09:35:07.033Z,64.35
2022-08-27T09:37:17.216Z,64.54
2022-08-27T09:39:31.301Z,64.46
2022-08-27T09:41:48.392Z,64.16
2022-08-27T09:44:02.123Z,63.71
2022-08-27T09:46:19.775Z,64.02
2022-08-27T09:48:29.972Z,63.14
2022-08-27T09:50:43.589Z,62.42
2022-08-27T09:52:56.528Z,62.37
2022-08-27T09:55:05.433Z,62.28
2022-08-27T09:57:12.609Z,62.01
2022-08-27T09:59:27.040Z,60.75
2022-08-27T10:01:34.453Z,60.46
2022-08-27T10:03:39.354Z,60.16
2022-08-27T10:05:50.690Z,60.30
2022-08-27T10:08:00.727Z,60.68
2022-08-27T10:10:16.604Z,61.01
2022-08-27T10:12:28.394Z,61.03
2022-08-27T10:14:37.683Z,61.15
2022-08-27T10:16:59.147Z,60.47
2022-08-27T10:19:18.080Z,60.58
2022-08-27T10:21:28.022Z,60.00
2022-08-27T10:23:43.501Z,59.38
2022-08-27T10:25:55.563Z,59.06
2022-08-27T10:28:13.183Z,58.98
2022-08-27T10:30:22.122Z,59.02
2022-08-27T10:32:43.373Z,57.71
2022-08-27T10:35:10.528Z,56.78
2022-08-27T10:37:36.751Z,56.50
2022-08-27T10:40:04.614Z,57.44
2022-08-27T10:42:18.070Z,57.16
2022-08-27T10:44:41.565Z,56.08
2022-08-27T10:47:12.209Z,56.73
2022-08-27T10:49:23.636Z,56.81
2022-08-27T10:51:37.942Z,57.26
2022-08-27T10:53:53.449Z,57.43
2022-08-27T10:56:16.185Z,57.91
2022-08-27T10:58:51.247Z,59.26
2022-08-27T11:01:04.571Z,59.47
2022-08-27T11:03:13.731Z,60.26
2022-08-27T11:05:23.469Z,59.01
2022-08-27T11:07:33.761Z,58.53
2022-08-27T11:09:43.821Z,58.02
2022-08-27T11:12:13.182Z,57.06
2022-08-27T11:14:31.143Z,56.46
2022-08-27T11:16:44.806Z,55.46
2022-08-27T11:18:54.046Z,55.86
2022-08-27T11:21:04.482Z,55.67
2022-08-27T11:23:13.041Z,55.25
2022-08-27T11:25:34.180Z,55.11
2022-08-27T11:27:40.357Z,54.34
2022-08-27T11:30:00.387Z,55.36
2022-08-27T11:32:13.875Z,55.70
2022-08-27T11:34:25.782Z,56.39
2022-08-27T11:36:55.893Z,55.89
2022-08-27T11:39:07.322Z,55.04
2022-08-27T11:41:44.814Z,54.94
2022-08-27T11:43:50.902Z,55.20
2022-08-27T11:46:01.752Z,54.22
2022-08-27T11:48:20.744Z,54.35
2022-08-27T11:50:27.388Z,55.16
2022-08-27T11:52:35.786Z,54.33
2022-08-27T11:54:50.340Z,53.89
2022-08-27T11:56:55.379Z,53.28
2022-08-27T11:59:12.658Z,52.19
2022-08-27T12:01:29.895Z,51.85
2022-08-27T12:03:37.131Z,51.22
2022-08-27T12:05:45.583Z,50.55
2022-08-27T12:07:54.968Z,51.38
2022-08-27T12:10:19.786Z,50.55
2022-08-27T12:12:36.663Z,50.09
2022-08-27T12:14:48.665Z,50.46
2022-08-27T12:17:03.961Z,50.87
2022-08-27T12:19:23.501Z,50.68
2022-08-27T12:21:38.775Z,51.38
2022-08-27T12:23:47.078Z,51.32
2022-08-27T12:26:00.507Z,51.99
2022-08-27T12:28:09.462Z,51.80
2022-08-27T12:30:24.607Z,52.02
2022-08-27T12:32:35.004Z,51.80
2022-08-27T12:34:47.108Z,51.30
2022-08-27T12:36:53.748Z,51.14
2022-08-27T12:39:03.014Z,51.83
2022-08-27T12:41:09.419Z,51.58
2022-08-27T12:43:16.724Z,51.69
2022-08-27T12:45:24.479Z,53.22
2022-08-27T12:47:36.964Z,54.27
2022-08-27T12:49:53.815Z,55.06
2022-08-27T12:52:04.669Z,55.50
2022-08-27T12:54:28.866Z,55.71
2022-08-27T12:56:48.228Z,55.44
2022-08-27T12:59:04.752Z,54.73
2022-08-27T13:01:28.736Z,54.71
2022-08-27T13:03:41.284Z,54.58
2022-08-27T13:05:49.680Z,52.98
2022-08-27T13:07:57.042Z,52.42
2022-08-27T13:10:13.216Z,51.97
2022-08-27T13:12:21.430Z,53.12
2022-08-27T13:14:27.921Z,53.04
2022-08-27T13:16:35.139Z,53.74
2022-08-27T13:18:50.332Z,54.66
2022-08-27T13:21:05.090Z,55.39
2022-08-27T13:23:20.311Z,55.63
2022-08-27T13:25:27.585Z,55.65
2022-08-27T13:27:35.687Z,55.76
2022-08-27T13:29:41.306Z,56.55
2022-08-27T13:31:49.332Z,56.86
2022-08-27T13:33:58.738Z,56.74
2022-08-27T13:36:06.841Z,56.21
2022-08-27T13:38:12.662Z,55.85
2022-08-27T13:40:28.994Z,55.90
2022-08-27T13:42:34.179Z,56.61
2022-08-27T13:44:42.051Z,57.07
2022-08-27T13:46:56.380Z,56.61
2022-08-27T13:49:04.024Z,56.22
2022-08-27T13:51:10.012Z,55.38
2022-08-27T13:53:34.217Z,54.90
2022-08-27T13:55:41.173Z,54.33
2022-08-27T13:57:48.601Z,54.16
2022-08-27T13:59:53.529Z,54.56
2022-08-27T14:02:02.892Z,53.48
2022-08-27T14:04:12.777Z,53.01
2022-08-27T14:06:35.438Z,53.59
2022-08-27T14:08:40.610Z,52.91
2022-08-27T14:10:47.841Z,53.73
2022-08-27T14:13:00.993Z,53.81
2022-08-27T14:15:16.834Z,53.96
2022-08-27T14:17:29.385Z,53.94
2022-08-27T14:19:40.136Z,53.98
2022-08-27T14:21:46.085Z,54.29
2022-08-27T14:23:51.969Z,54.39
2022-08-27T14:26:00.219Z,54.19
2022-08-27T14:28:05.652Z,53.51
2022-08-27T14:30:13.083Z,53.06
2022-08-27T14:32:19.244Z,52.88
2022-08-27T14:34:25.210Z,52.45
2022-08-27T14:36:37.478Z,52.62
2022-08-27T14:38:46.665Z,52.26
2022-08-27T14:40:53.844Z,52.44
2022-08-27T14:42:59.615Z,51.67
2022-08-27T14:45:04.174Z,52.00
2022-08-27T14:47:10.283Z,52.37
2022-08-27T14:49:25.076Z,52.91
2022-08-27T14:51:37.097Z,52.64
2022-08-27T14:53:41.923Z,52.47
2022-08-27T14:55:46.872Z,52.76
2022-08-27T14:57:56.690Z,53.89
2022-08-27T15:00:01.340Z,53.97
2022-08-27T15:02:10.041Z,54.37
2022-08-27T15:04:15.510Z,54.91
2022-08-27T15:06:22.466Z,54.68
2022-08-27T15:08:32.075Z,55.11
2022-08-27T15:10:37.227Z,55.56
2022-08-27T15:12:43.122Z,56.37
2022-08-27T15:14:47.986Z,56.89
2022-08-27T15:16:53.708Z,56.73
2022-08-27T15:19:01.078Z,56.57
2022-08-27T15:21:06.562Z,56.57
2022-08-27T15:23:13.734Z,56.62
2022-08-27T15:25:22.062Z,56.27
2022-08-27T15:27:31.952Z,56.07
2022-08-27T15:29:43.577Z,56.66
2022-08-27T15:31:48.779Z,56.61
2022-08-27T15:33:53.734Z,56.71
2022-08-27T15:36:03.415Z,56.95
2022-08-27T15:38:08.946Z,57.07
2022-08-27T15:40:15.477Z,57.68
2022-08-27T15:42:23.688Z,56.75
2022-08-27T15:44:28.698Z,56.49
2022-08-27T15:46:33.600Z,55.27
2022-08-27T15:48:39.360Z,55.16
2022-08-27T15:50:45.508Z,54.86
2022-08-27T15:52:52.083Z,54.29
2022-08-27T15:54:57.070Z,53.77
2022-08-27T15:57:02.529Z,53.97
2022-08-27T15:59:10.089Z,54.06
2022-08-27T16:01:18.581Z,54.51
2022-08-27T16:03:26.178Z,53.75
2022-08-27T16:05:43.417Z,53.99
2022-08-27T16:07:48.532Z,55.03
2022-08-27T16:09:53.968Z,54.68
2022-08-27T16:11:58.956Z,55.70
2022-08-27T16:14:04.029Z,55.42
2022-08-27T16:16:11.707Z,56.35
2022-08-27T16:18:17.003Z,56.33
2022-08-27T16:20:25.649Z,56.96
2022-08-27T16:22:30.753Z,57.17
2022-08-27T16:24:36.270Z,57.05
2022-08-27T16:26:41.890Z,56.87
2022-08-27T16:28:47.008Z,56.33
2022-08-27T16:30:54.819Z,55.78
2022-08-27T16:33:02.470Z,54.18
2022-08-27T16:35:08.843Z,53.43
2022-08-27T16:37:14.720Z,53.82
2022-08-27T16:39:19.604Z,53.93
2022-08-27T16:41:24.283Z,54.39
2022-08-27T16:43:30.855Z,55.77
2022-08-27T16:45:35.879Z,57.06
2022-08-27T16:48:01.064Z,58.05
2022-08-27T16:50:26.092Z,58.77
2022-08-27T16:52:31.909Z,59.85
2022-08-27T16:54:37.856Z,60.98
2022-08-27T16:56:43.600Z,61.75
2022-08-27T16:58:53.296Z,63.70
2022-08-27T17:01:01.047Z,64.99
2022-08-27T17:03:05.963Z,65.58
2022-08-27T17:07:38.650Z,68.41
2022-08-27T17:09:44.264Z,69.34
2022-08-27T17:11:54.850Z,69.41
2022-08-27T17:14:02.782Z,69.61
2022-08-27T17:16:08.272Z,70.81
2022-08-27T17:18:13.714Z,71.34
2022-08-27T17:20:21.950Z,71.22
2022-08-27T17:22:27.598Z,70.90
2022-08-27T17:24:32.452Z,71.75
2022-08-27T17:26:37.399Z,70.35
2022-08-27T17:28:43.549Z,70.63
2022-08-27T17:30:48.675Z,70.25
2022-08-27T17:32:53.815Z,70.38
2022-08-27T17:35:05.120Z,70.34
2022-08-27T17:37:14.079Z,69.72
2022-08-27T17:39:19.623Z,70.12
2022-08-27T17:41:33.656Z,69.52
2022-08-27T17:43:40.212Z,69.56
2022-08-27T17:45:45.415Z,69.16
2022-08-27T17:47:50.182Z,69.11
2022-08-27T17:49:55.337Z,70.73
2022-08-27T17:52:02.779Z,70.42
2022-08-27T17:54:21.993Z,70.64
2022-08-27T17:56:27.412Z,70.65
2022-08-27T17:58:32.902Z,70.68
2022-08-27T18:00:38.655Z,71.34
2022-08-27T18:02:47.502Z,69.65
2022-08-27T18:04:53.109Z,69.47
2022-08-27T18:06:58.250Z,70.17
2022-08-27T18:09:03.007Z,69.96
2022-08-27T18:11:10.995Z,70.60
2022-08-27T18:13:16.639Z,69.77
2022-08-27T18:15:24.368Z,70.00
2022-08-27T18:17:29.358Z,70.75
2022-08-27T18:19:37.825Z,71.18
2022-08-27T18:21:46.511Z,71.35
2022-08-27T18:23:53.201Z,71.70
2022-08-27T18:25:59.657Z,72.15
2022-08-27T18:28:09.386Z,72.27
2022-08-27T18:30:16.408Z,72.60
2022-08-27T18:32:21.346Z,72.61
2022-08-27T18:34:26.180Z,71.99
2022-08-27T18:36:31.555Z,71.69
2022-08-27T18:38:36.468Z,71.96
2022-08-27T18:40:44.635Z,71.53
2022-08-27T18:42:49.855Z,71.51
2022-08-27T18:44:57.676Z,71.43
2022-08-27T18:47:02.539Z,70.87
2022-08-27T18:49:07.816Z,71.14
2022-08-27T18:51:15.480Z,71.08
2022-08-27T18:53:22.158Z,71.65
2022-08-27T18:55:30.379Z,71.27
2022-08-27T18:57:35.307Z,71.28
2022-08-27T18:59:40.314Z,70.85
2022-08-27T19:01:48.223Z,70.83
2022-08-27T19:03:54.972Z,71.00
2022-08-27T19:06:00.632Z,71.13
2022-08-27T19:08:06.893Z,71.57
2022-08-27T19:10:12.596Z,71.70
2022-08-27T19:12:18.263Z,71.56
2022-08-27T19:14:23.108Z,70.97
2022-08-27T19:16:36.020Z,71.45
2022-08-27T19:18:44.669Z,71.15
2022-08-27T19:20:49.518Z,72.26
2022-08-27T19:22:54.433Z,72.38
2022-08-27T19:24:59.521Z,72.51
2022-08-27T19:27:04.193Z,72.39
2022-08-27T19:29:09.308Z,72.35
2022-08-27T19:31:14.396Z,72.58
2022-08-27T19:33:19.414Z,72.82
2022-08-27T19:35:27.085Z,73.07
2022-08-27T19:37:34.052Z,72.93
2022-08-27T19:39:40.181Z,72.71
2022-08-27T19:41:45.145Z,72.79
2022-08-27T19:43:50.060Z,72.68
2022-08-27T19:45:55.516Z,73.14
2022-08-27T19:48:02.271Z,72.65
2022-08-27T19:50:08.269Z,72.84
2022-08-27T19:52:16.141Z,72.17
2022-08-27T19:54:21.649Z,72.59
2022-08-27T19:56:28.885Z,72.92
2022-08-27T19:58:33.835Z,72.57
2022-08-27T20:00:38.767Z,72.78
2022-08-27T20:02:44.858Z,73.09
2022-08-27T20:05:14.373Z,72.87
2022-08-27T20:07:17.236Z,73.35
2022-08-27T20:09:25.667Z,73.45
2022-08-27T20:11:30.473Z,73.66
2022-08-27T20:13:35.453Z,73.62
2022-08-27T20:15:43.273Z,73.54
2022-08-27T20:17:51.502Z,73.64
2022-08-27T20:19:56.684Z,73.50
2022-08-27T20:22:01.562Z,73.54
2022-08-27T20:24:09.711Z,73.36
2022-08-27T20:26:14.610Z,73.88
2022-08-27T20:28:37.793Z,73.59
2022-08-27T20:30:43.568Z,73.86
2022-08-27T20:32:53.641Z,73.90
2022-08-27T20:34:59.409Z,73.74
2022-08-27T20:37:05.403Z,73.53
2022-08-27T20:39:12.818Z,73.74
2022-08-27T20:41:17.688Z,73.80
2022-08-27T20:43:22.620Z,73.72
2022-08-27T20:45:27.875Z,74.11
2022-08-27T20:47:35.293Z,74.16
2022-08-27T20:49:41.630Z,73.97
2022-08-27T20:51:51.242Z,73.57
2022-08-27T20:54:07.615Z,73.96
2022-08-27T20:56:15.098Z,74.30
2022-08-27T20:58:32.604Z,74.33
2022-08-27T21:00:40.381Z,74.01
2022-08-27T21:02:46.619Z,74.12
2022-08-27T21:04:52.136Z,74.29
2022-08-27T21:06:56.983Z,74.10
2022-08-27T21:09:01.939Z,74.18
2022-08-27T21:11:15.732Z,73.64
2022-08-27T21:13:22.814Z,74.23
2022-08-27T21:15:27.779Z,73.88
2022-08-27T21:17:32.661Z,73.46
2022-08-27T21:19:38.193Z,73.44
2022-08-27T21:21:43.162Z,73.28
2022-08-27T21:23:48.909Z,73.74
2022-08-27T21:25:53.757Z,73.76
2022-08-27T21:28:03.621Z,74.08
2022-08-27T21:30:10.986Z,73.76
2022-08-27T21:32:16.788Z,74.01
2022-08-27T21:34:21.734Z,74.26
2022-08-27T21:36:26.388Z,73.87
2022-08-27T21:38:31.833Z,74.06
2022-08-27T21:40:36.727Z,74.21
2022-08-27T21:42:42.001Z,74.36
2022-08-27T21:44:49.520Z,73.99
2022-08-27T21:46:54.431Z,74.13
2022-08-27T21:48:59.319Z,74.37
2022-08-27T21:51:10.548Z,74.85
2022-08-27T21:53:17.042Z,74.83
2022-08-27T21:55:22.117Z,75.25
2022-08-27T21:57:27.018Z,74.96
2022-08-27T21:59:32.136Z,74.97
2022-08-27T22:01:39.481Z,75.19
2022-08-27T22:03:47.022Z,75.88
2022-08-27T22:05:53.221Z,75.92
2022-08-27T22:07:58.105Z,75.68
2022-08-27T22:10:03.199Z,75.85
2022-08-27T22:12:08.349Z,75.56
2022-08-27T22:14:13.294Z,75.42
2022-08-27T22:16:18.323Z,75.65
2022-08-27T22:18:26.093Z,75.55
2022-08-27T22:20:33.118Z,75.77
2022-08-27T22:22:38.310Z,75.56
2022-08-27T22:24:43.183Z,75.24
2022-08-27T22:26:48.106Z,75.25
2022-08-27T22:28:53.173Z,75.37
2022-08-27T22:30:57.962Z,74.82
2022-08-27T22:33:03.756Z,74.85
2022-08-27T22:35:13.144Z,74.81
2022-08-27T22:37:18.062Z,74.82
2022-08-27T22:39:24.051Z,75.28
2022-08-27T22:41:30.282Z,75.47
2022-08-27T22:43:37.642Z,75.58
2022-08-27T22:45:42.210Z,74.96
2022-08-27T22:47:47.101Z,75.55
2022-08-27T22:49:52.768Z,75.94
2022-08-27T22:52:00.685Z,75.70
2022-08-27T22:54:05.551Z,75.41
2022-08-27T22:56:10.471Z,75.25
2022-08-27T22:58:16.281Z,75.57
2022-08-27T23:00:26.209Z,75.39
2022-08-27T23:02:31.305Z,75.01
2022-08-27T23:04:54.073Z,74.61
2022-08-27T23:07:04.171Z,75.07
2022-08-27T23:09:09.070Z,74.79
2022-08-27T23:11:13.979Z,75.20
2022-08-27T23:13:18.849Z,75.09
2022-08-27T23:15:25.972Z,74.68
2022-08-27T23:17:30.835Z,74.45
2022-08-27T23:19:35.674Z,74.40
2022-08-27T23:21:40.453Z,74.14
2022-08-27T23:23:47.999Z,74.15
2022-08-27T23:26:05.264Z,74.27
2022-08-27T23:28:14.446Z,74.46
2022-08-27T23:30:20.666Z,74.07
2022-08-27T23:32:27.526Z,73.46
2022-08-27T23:34:32.538Z,73.80
2022-08-27T23:36:38.393Z,73.37
2022-08-27T23:38:43.302Z,73.39
2022-08-27T23:40:52.313Z,73.42
2022-08-27T23:42:58.018Z,73.22
2022-08-27T23:45:02.891Z,73.67
2022-08-27T23:47:07.779Z,73.17
2022-08-27T23:49:12.636Z,72.91
2022-08-27T23:51:17.543Z,72.83
2022-08-27T23:53:22.614Z,72.85
2022-08-27T23:55:27.279Z,72.77
2022-08-27T23:57:34.814Z,72.86
2022-08-27T23:59:39.649Z,73.29
